createdAt,value
2018-07-30T00:00:57.994Z,1008.13
2018-07-30T00:02:51.546Z,1008.11
2018-07-30T00:03:51.564Z,1008.15
2018-07-30T00:05:45.113Z,1008.19
2018-07-30T00:06:45.136Z,1008.16
2018-07-30T00:08:38.682Z,1008.19
2018-07-30T00:09:38.705Z,1008.21
2018-07-30T00:11:32.259Z,1008.19
2018-07-30T00:12:32.276Z,1008.23
2018-07-30T00:14:25.830Z,1008.25
2018-07-30T00:15:25.848Z,1008.26
2018-07-30T00:17:19.395Z,1008.29
2018-07-30T00:18:19.420Z,1008.26
2018-07-30T00:20:12.971Z,1008.24
2018-07-30T00:21:12.988Z,1008.26
2018-07-30T00:23:06.537Z,1008.25
2018-07-30T00:24:06.558Z,1008.25
2018-07-30T00:26:00.107Z,1008.23
2018-07-30T00:27:00.140Z,1008.21
2018-07-30T00:28:53.677Z,1008.24
2018-07-30T00:29:53.700Z,1008.23
2018-07-30T00:31:47.581Z,1008.23
2018-07-30T00:32:47.269Z,1008.24
2018-07-30T00:34:40.817Z,1008.25
2018-07-30T00:35:40.840Z,1008.29
2018-07-30T00:37:34.403Z,1008.27
2018-07-30T00:38:34.418Z,1008.27
2018-07-30T00:40:27.995Z,1008.26
2018-07-30T00:41:27.980Z,1008.29
2018-07-30T00:43:21.532Z,1008.27
2018-07-30T00:44:21.558Z,1008.28
2018-07-30T00:46:15.097Z,1008.32
2018-07-30T00:47:15.123Z,1008.31
2018-07-30T00:49:08.163Z,1008.29
2018-07-30T00:50:08.179Z,1008.30
2018-07-30T00:52:02.189Z,1008.29
2018-07-30T00:53:01.752Z,1008.29
2018-07-30T00:54:55.332Z,1008.28
2018-07-30T00:55:55.320Z,1008.30
2018-07-30T00:57:48.357Z,1008.30
2018-07-30T00:58:48.381Z,1008.26
2018-07-30T01:00:41.967Z,1008.26
2018-07-30T01:01:41.963Z,1008.25
2018-07-30T01:03:35.515Z,1008.26
2018-07-30T01:04:35.521Z,1008.28
2018-07-30T01:06:29.084Z,1008.28
2018-07-30T01:07:29.091Z,1008.32
2018-07-30T01:09:22.127Z,1008.36
2018-07-30T01:10:22.148Z,1008.36
2018-07-30T01:12:15.701Z,1008.34
2018-07-30T01:13:15.718Z,1008.33
2018-07-30T01:15:09.266Z,1008.38
2018-07-30T01:16:09.291Z,1008.32
2018-07-30T01:18:02.836Z,1008.35
2018-07-30T01:19:02.861Z,1008.39
2018-07-30T01:20:56.407Z,1008.38
2018-07-30T01:21:56.432Z,1008.40
2018-07-30T01:23:49.983Z,1008.41
2018-07-30T01:24:50.002Z,1008.39
2018-07-30T01:26:43.039Z,1008.36
2018-07-30T01:27:43.061Z,1008.38
2018-07-30T01:29:36.610Z,1008.40
2018-07-30T01:30:36.636Z,1008.42
2018-07-30T01:32:30.178Z,1008.38
2018-07-30T01:33:30.201Z,1008.38
2018-07-30T01:35:23.747Z,1008.34
2018-07-30T01:36:23.770Z,1008.33
2018-07-30T01:38:17.322Z,1008.30
2018-07-30T01:39:17.342Z,1008.30
2018-07-30T01:41:10.896Z,1008.35
2018-07-30T01:42:10.913Z,1008.31
2018-07-30T01:44:04.460Z,1008.31
2018-07-30T01:45:04.483Z,1008.31
2018-07-30T01:46:57.526Z,1008.34
2018-07-30T01:47:57.539Z,1008.38
2018-07-30T01:49:51.088Z,1008.43
2018-07-30T01:50:51.112Z,1008.41
2018-07-30T01:52:44.658Z,1008.43
2018-07-30T01:53:44.680Z,1008.42
2018-07-30T01:55:38.232Z,1008.41
2018-07-30T01:56:38.251Z,1008.42
2018-07-30T01:58:31.804Z,1008.43
2018-07-30T01:59:31.822Z,1008.44
2018-07-30T02:01:25.335Z,1008.47
2018-07-30T02:02:24.882Z,1008.49
2018-07-30T02:04:18.434Z,1008.48
2018-07-30T02:05:18.453Z,1008.48
2018-07-30T02:07:11.999Z,1008.46
2018-07-30T02:08:12.020Z,1008.48
2018-07-30T02:10:05.061Z,1008.53
2018-07-30T02:11:05.091Z,1008.53
2018-07-30T02:12:58.626Z,1008.53
2018-07-30T02:13:58.652Z,1008.54
2018-07-30T02:15:52.202Z,1008.51
2018-07-30T02:16:52.215Z,1008.48
2018-07-30T02:18:45.767Z,1008.52
2018-07-30T02:19:45.792Z,1008.54
2018-07-30T02:21:39.346Z,1008.56
2018-07-30T02:22:39.358Z,1008.52
2018-07-30T02:24:32.909Z,1008.50
2018-07-30T02:25:32.935Z,1008.52
2018-07-30T02:27:26.510Z,1008.54
2018-07-30T02:28:26.504Z,1008.55
2018-07-30T02:30:19.539Z,1008.55
2018-07-30T02:31:19.566Z,1008.54
2018-07-30T02:33:13.121Z,1008.53
2018-07-30T02:34:13.132Z,1008.54
2018-07-30T02:36:06.681Z,1008.53
2018-07-30T02:37:06.703Z,1008.52
2018-07-30T02:39:00.257Z,1008.57
2018-07-30T02:40:00.271Z,1008.60
2018-07-30T02:41:53.821Z,1008.58
2018-07-30T02:42:53.844Z,1008.58
2018-07-30T02:44:47.392Z,1008.61
2018-07-30T02:45:47.415Z,1008.59
2018-07-30T02:47:40.964Z,1008.59
2018-07-30T02:48:40.982Z,1008.62
2018-07-30T02:50:34.027Z,1008.63
2018-07-30T02:51:34.041Z,1008.60
2018-07-30T02:53:27.579Z,1008.59
2018-07-30T02:54:27.635Z,1008.60
2018-07-30T02:56:21.166Z,1008.58
2018-07-30T02:57:21.182Z,1008.58
2018-07-30T02:59:14.731Z,1008.60
2018-07-30T03:00:14.753Z,1008.56
2018-07-30T03:02:08.302Z,1008.59
2018-07-30T03:03:08.321Z,1008.58
2018-07-30T03:05:01.883Z,1008.62
2018-07-30T03:06:01.899Z,1008.64
2018-07-30T03:07:55.447Z,1008.64
2018-07-30T03:08:55.464Z,1008.66
2018-07-30T03:10:49.013Z,1008.64
2018-07-30T03:11:49.033Z,1008.62
2018-07-30T03:13:43.056Z,1008.63
2018-07-30T03:14:42.611Z,1008.61
2018-07-30T03:16:36.150Z,1008.59
2018-07-30T03:17:36.177Z,1008.53
2018-07-30T03:19:29.727Z,1008.54
2018-07-30T03:20:29.748Z,1008.58
2018-07-30T03:22:23.294Z,1008.58
2018-07-30T03:23:23.319Z,1008.61
2018-07-30T03:25:16.871Z,1008.63
2018-07-30T03:26:16.888Z,1008.60
2018-07-30T03:28:10.434Z,1008.62
2018-07-30T03:29:10.458Z,1008.61
2018-07-30T03:31:04.011Z,1008.71
2018-07-30T03:32:04.028Z,1008.74
2018-07-30T03:33:57.575Z,1008.77
2018-07-30T03:34:57.595Z,1008.77
2018-07-30T03:36:51.147Z,1008.78
2018-07-30T03:37:51.171Z,1008.82
2018-07-30T03:39:44.719Z,1008.82
2018-07-30T03:40:44.741Z,1008.83
2018-07-30T03:42:37.785Z,1008.85
2018-07-30T03:43:37.800Z,1008.87
2018-07-30T03:45:31.425Z,1008.89
2018-07-30T03:46:31.367Z,1008.90
2018-07-30T03:48:24.927Z,1008.91
2018-07-30T03:49:24.939Z,1008.90
2018-07-30T03:51:18.490Z,1008.93
2018-07-30T03:52:18.513Z,1008.89
2018-07-30T03:54:12.059Z,1008.90
2018-07-30T03:55:12.081Z,1008.87
2018-07-30T03:57:05.622Z,1008.89
2018-07-30T03:58:05.751Z,1008.90
2018-07-30T03:59:59.241Z,1008.91
2018-07-30T04:00:59.221Z,1008.91
2018-07-30T04:02:52.777Z,1008.92
2018-07-30T04:03:52.790Z,1008.92
2018-07-30T04:05:46.365Z,1008.94
2018-07-30T04:06:46.360Z,1008.98
2018-07-30T04:08:39.909Z,1009.03
2018-07-30T04:09:39.951Z,1009.00
2018-07-30T04:11:33.485Z,1009.04
2018-07-30T04:12:33.501Z,1009.01
2018-07-30T04:14:27.049Z,1009.00
2018-07-30T04:15:27.071Z,1009.02
2018-07-30T04:17:20.116Z,1009.03
2018-07-30T04:18:20.164Z,1009.04
2018-07-30T04:20:13.679Z,1009.05
2018-07-30T04:21:13.701Z,1009.03
2018-07-30T04:23:07.249Z,1009.07
2018-07-30T04:24:07.272Z,1009.05
2018-07-30T04:26:12.522Z,1009.06
2018-07-30T04:27:12.515Z,1009.08
2018-07-30T04:29:06.070Z,1009.12
2018-07-30T04:30:06.084Z,1009.13
2018-07-30T04:31:59.121Z,1009.11
2018-07-30T04:32:59.142Z,1009.10
2018-07-30T04:34:52.725Z,1009.05
2018-07-30T04:35:52.731Z,1009.05
2018-07-30T04:37:46.265Z,1009.06
2018-07-30T04:38:46.285Z,1009.08
2018-07-30T04:40:39.324Z,1009.08
2018-07-30T04:41:39.346Z,1009.11
2018-07-30T04:43:32.894Z,1009.12
2018-07-30T04:44:32.914Z,1009.14
2018-07-30T04:46:26.466Z,1009.16
2018-07-30T04:47:26.486Z,1009.20
2018-07-30T04:49:19.558Z,1009.18
2018-07-30T04:50:19.593Z,1009.16
2018-07-30T04:52:13.097Z,1009.18
2018-07-30T04:53:13.112Z,1009.19
2018-07-30T04:55:06.660Z,1009.19
2018-07-30T04:56:06.684Z,1009.18
2018-07-30T04:58:00.232Z,1009.19
2018-07-30T04:59:00.253Z,1009.20
2018-07-30T05:00:53.290Z,1009.19
2018-07-30T05:01:53.311Z,1009.20
2018-07-30T05:03:46.374Z,1009.19
2018-07-30T05:04:46.373Z,1009.22
2018-07-30T05:06:39.408Z,1009.18
2018-07-30T05:07:39.428Z,1009.24
2018-07-30T05:09:32.995Z,1009.21
2018-07-30T05:10:32.999Z,1009.23
2018-07-30T05:12:26.547Z,1009.21
2018-07-30T05:13:26.572Z,1009.23
2018-07-30T05:15:20.119Z,1009.21
2018-07-30T05:16:20.141Z,1009.23
2018-07-30T05:18:13.695Z,1009.24
2018-07-30T05:19:13.749Z,1009.28
2018-07-30T05:21:07.270Z,1009.34
2018-07-30T05:22:07.280Z,1009.31
2018-07-30T05:24:00.829Z,1009.32
2018-07-30T05:25:00.852Z,1009.30
2018-07-30T05:26:53.893Z,1009.29
2018-07-30T05:27:53.912Z,1009.31
2018-07-30T05:29:47.459Z,1009.35
2018-07-30T05:30:47.481Z,1009.32
2018-07-30T05:32:41.031Z,1009.36
2018-07-30T05:33:41.051Z,1009.32
2018-07-30T05:35:34.600Z,1009.32
2018-07-30T05:36:34.625Z,1009.33
2018-07-30T05:38:27.665Z,1009.31
2018-07-30T05:39:27.680Z,1009.31
2018-07-30T05:41:22.049Z,1009.31
2018-07-30T05:42:22.065Z,1009.27
2018-07-30T05:44:15.623Z,1009.29
2018-07-30T05:45:15.641Z,1009.29
2018-07-30T05:47:08.676Z,1009.33
2018-07-30T05:48:08.700Z,1009.34
2018-07-30T05:50:02.274Z,1009.33
2018-07-30T05:51:02.271Z,1009.35
2018-07-30T05:52:55.306Z,1009.36
2018-07-30T05:53:55.327Z,1009.37
2018-07-30T05:55:48.882Z,1009.35
2018-07-30T05:56:48.900Z,1009.39
2018-07-30T05:58:42.447Z,1009.41
2018-07-30T05:59:42.531Z,1009.38
2018-07-30T06:01:36.023Z,1009.43
2018-07-30T06:02:36.040Z,1009.41
2018-07-30T06:04:29.588Z,1009.41
2018-07-30T06:05:29.647Z,1009.41
2018-07-30T06:07:23.157Z,1009.39
2018-07-30T06:08:23.179Z,1009.41
2018-07-30T06:10:16.728Z,1009.41
2018-07-30T06:11:16.750Z,1009.42
2018-07-30T06:13:10.305Z,1009.40
2018-07-30T06:14:10.323Z,1009.36
2018-07-30T06:16:03.868Z,1009.28
2018-07-30T06:17:03.892Z,1009.35
2018-07-30T06:18:57.444Z,1009.32
2018-07-30T06:19:57.462Z,1009.33
2018-07-30T06:21:50.497Z,1009.39
2018-07-30T06:22:50.524Z,1009.43
2018-07-30T06:24:44.069Z,1009.49
2018-07-30T06:25:44.096Z,1009.49
2018-07-30T06:27:37.638Z,1009.44
2018-07-30T06:28:37.662Z,1009.50
2018-07-30T06:30:31.216Z,1009.47
2018-07-30T06:31:31.234Z,1009.47
2018-07-30T06:33:24.781Z,1009.44
2018-07-30T06:34:24.804Z,1009.45
2018-07-30T06:36:17.844Z,1009.51
2018-07-30T06:37:17.860Z,1009.53
2018-07-30T06:39:11.408Z,1009.50
2018-07-30T06:40:11.433Z,1009.46
2018-07-30T06:42:04.979Z,1009.45
2018-07-30T06:43:05.002Z,1009.47
2018-07-30T06:44:58.551Z,1009.44
2018-07-30T06:45:58.572Z,1009.45
2018-07-30T06:47:52.130Z,1009.44
2018-07-30T06:48:52.143Z,1009.47
2018-07-30T06:50:45.690Z,1009.46
2018-07-30T06:51:45.714Z,1009.44
2018-07-30T06:53:39.266Z,1009.46
2018-07-30T06:54:39.283Z,1009.48
2018-07-30T06:56:32.831Z,1009.51
2018-07-30T06:57:32.856Z,1009.54
2018-07-30T06:59:26.403Z,1009.52
2018-07-30T07:00:26.426Z,1009.57
2018-07-30T07:02:19.972Z,1009.62
2018-07-30T07:03:20.052Z,1009.69
2018-07-30T07:05:13.037Z,1009.72
2018-07-30T07:06:13.056Z,1009.68
2018-07-30T07:08:06.601Z,1009.72
2018-07-30T07:09:06.625Z,1009.73
2018-07-30T07:11:00.307Z,1009.75
2018-07-30T07:12:00.195Z,1009.76
2018-07-30T07:13:53.744Z,1009.75
2018-07-30T07:14:53.835Z,1009.77
2018-07-30T07:16:47.327Z,1009.79
2018-07-30T07:17:47.334Z,1009.80
2018-07-30T07:19:40.883Z,1009.79
2018-07-30T07:20:40.925Z,1009.83
2018-07-30T07:22:34.463Z,1009.84
2018-07-30T07:23:34.476Z,1009.83
2018-07-30T07:25:27.535Z,1009.78
2018-07-30T07:26:27.536Z,1009.79
2018-07-30T07:28:20.575Z,1009.78
2018-07-30T07:29:20.595Z,1009.77
2018-07-30T07:31:14.140Z,1009.76
2018-07-30T07:32:14.166Z,1009.75
2018-07-30T07:34:19.385Z,1009.75
2018-07-30T07:35:19.411Z,1009.75
2018-07-30T07:37:12.955Z,1009.79
2018-07-30T07:38:12.980Z,1009.77
2018-07-30T07:40:06.535Z,1009.78
2018-07-30T07:41:06.550Z,1009.80
2018-07-30T07:43:00.097Z,1009.79
2018-07-30T07:44:00.118Z,1009.81
2018-07-30T07:45:53.604Z,1009.83
2018-07-30T07:46:53.631Z,1009.81
2018-07-30T07:48:47.107Z,1009.84
2018-07-30T07:49:47.132Z,1009.83
2018-07-30T07:51:40.642Z,1009.85
2018-07-30T07:52:40.641Z,1009.87
2018-07-30T07:54:34.123Z,1009.89
2018-07-30T07:55:34.148Z,1009.87
2018-07-30T07:57:27.639Z,1009.89
2018-07-30T07:58:27.657Z,1009.92
2018-07-30T08:00:21.137Z,1009.87
2018-07-30T08:01:21.161Z,1009.85
2018-07-30T08:03:14.647Z,1009.85
2018-07-30T08:04:14.668Z,1009.85
2018-07-30T08:06:08.171Z,1009.86
2018-07-30T08:07:08.177Z,1009.80
2018-07-30T08:09:01.662Z,1009.80
2018-07-30T08:10:01.682Z,1009.78
2018-07-30T08:11:55.169Z,1009.79
2018-07-30T08:12:55.193Z,1009.80
2018-07-30T08:14:48.680Z,1009.76
2018-07-30T08:15:48.700Z,1009.76
2018-07-30T08:17:41.688Z,1009.73
2018-07-30T08:18:41.713Z,1009.76
2018-07-30T08:20:35.195Z,1009.74
2018-07-30T08:21:35.217Z,1009.78
2018-07-30T08:23:28.699Z,1009.73
2018-07-30T08:24:28.722Z,1009.71
2018-07-30T08:26:22.211Z,1009.72
2018-07-30T08:27:22.230Z,1009.67
2018-07-30T08:29:15.715Z,1009.70
2018-07-30T08:30:15.736Z,1009.70
2018-07-30T08:32:09.222Z,1009.69
2018-07-30T08:33:09.309Z,1009.71
2018-07-30T08:35:02.725Z,1009.73
2018-07-30T08:36:02.747Z,1009.71
2018-07-30T08:37:56.231Z,1009.75
2018-07-30T08:38:56.254Z,1009.79
2018-07-30T08:40:49.737Z,1009.75
2018-07-30T08:41:49.763Z,1009.77
2018-07-30T08:43:43.249Z,1009.76
2018-07-30T08:44:43.267Z,1009.77
2018-07-30T08:46:36.753Z,1009.77
2018-07-30T08:47:36.775Z,1009.82
2018-07-30T08:49:29.768Z,1009.82
2018-07-30T08:50:29.787Z,1009.85
2018-07-30T08:52:23.275Z,1009.83
2018-07-30T08:53:23.296Z,1009.84
2018-07-30T08:55:17.305Z,1009.87
2018-07-30T08:56:16.857Z,1009.86
2018-07-30T08:58:10.284Z,1009.89
2018-07-30T08:59:10.309Z,1009.88
2018-07-30T09:01:03.306Z,1009.95
2018-07-30T09:02:03.327Z,1009.94
2018-07-30T09:03:56.815Z,1009.95
2018-07-30T09:04:56.836Z,1009.96
2018-07-30T09:06:50.323Z,1009.91
2018-07-30T09:07:50.342Z,1009.88
2018-07-30T09:09:43.827Z,1009.95
2018-07-30T09:10:43.849Z,1009.90
2018-07-30T09:12:37.420Z,1009.88
2018-07-30T09:13:37.357Z,1009.88
2018-07-30T09:15:30.838Z,1009.90
2018-07-30T09:16:30.867Z,1009.91
2018-07-30T09:18:23.950Z,1009.86
2018-07-30T09:19:23.878Z,1009.86
2018-07-30T09:21:17.364Z,1009.83
2018-07-30T09:22:17.387Z,1009.86
2018-07-30T09:24:10.887Z,1009.85
2018-07-30T09:25:10.893Z,1009.86
2018-07-30T09:27:04.389Z,1009.89
2018-07-30T09:28:04.399Z,1009.86
2018-07-30T09:29:57.391Z,1009.84
2018-07-30T09:30:57.416Z,1009.86
2018-07-30T09:32:50.966Z,1009.81
2018-07-30T09:33:50.920Z,1009.79
2018-07-30T09:35:44.421Z,1009.77
2018-07-30T09:36:44.428Z,1009.78
2018-07-30T09:38:37.934Z,1009.74
2018-07-30T09:39:37.938Z,1009.79
2018-07-30T09:41:31.433Z,1009.82
2018-07-30T09:42:31.440Z,1009.79
2018-07-30T09:44:24.431Z,1009.75
2018-07-30T09:45:24.450Z,1009.76
2018-07-30T09:47:17.933Z,1009.74
2018-07-30T09:48:17.955Z,1009.76
2018-07-30T09:50:11.440Z,1009.77
2018-07-30T09:51:11.464Z,1009.74
2018-07-30T09:53:04.951Z,1009.70
2018-07-30T09:54:04.973Z,1009.74
2018-07-30T09:55:58.454Z,1009.73
2018-07-30T09:56:58.477Z,1009.71
2018-07-30T09:58:51.965Z,1009.72
2018-07-30T09:59:51.985Z,1009.73
2018-07-30T10:01:45.472Z,1009.69
2018-07-30T10:02:45.494Z,1009.66
2018-07-30T10:04:38.975Z,1009.68
2018-07-30T10:05:39.002Z,1009.64
2018-07-30T10:07:32.512Z,1009.62
2018-07-30T10:08:32.508Z,1009.67
2018-07-30T10:10:25.998Z,1009.59
2018-07-30T10:11:26.022Z,1009.62
2018-07-30T10:13:19.504Z,1009.60
2018-07-30T10:14:19.528Z,1009.61
2018-07-30T10:16:13.010Z,1009.62
2018-07-30T10:17:13.033Z,1009.58
2018-07-30T10:19:06.518Z,1009.60
2018-07-30T10:20:06.541Z,1009.62
2018-07-30T10:22:00.033Z,1009.60
2018-07-30T10:23:00.057Z,1009.60
2018-07-30T10:24:53.539Z,1009.54
2018-07-30T10:25:53.560Z,1009.55
2018-07-30T10:27:47.048Z,1009.51
2018-07-30T10:28:47.069Z,1009.52
2018-07-30T10:30:40.126Z,1009.45
2018-07-30T10:31:40.082Z,1009.42
2018-07-30T10:33:33.564Z,1009.42
2018-07-30T10:34:33.645Z,1009.41
2018-07-30T10:36:27.076Z,1009.39
2018-07-30T10:37:27.097Z,1009.41
2018-07-30T10:39:20.586Z,1009.38
2018-07-30T10:40:20.606Z,1009.33
2018-07-30T10:42:14.095Z,1009.32
2018-07-30T10:43:14.117Z,1009.36
2018-07-30T10:45:07.602Z,1009.35
2018-07-30T10:46:07.625Z,1009.39
2018-07-30T10:48:01.111Z,1009.33
2018-07-30T10:49:01.136Z,1009.32
2018-07-30T10:51:06.295Z,1009.29
2018-07-30T10:52:06.332Z,1009.27
2018-07-30T10:53:59.804Z,1009.23
2018-07-30T10:54:59.831Z,1009.22
2018-07-30T10:56:53.318Z,1009.26
2018-07-30T10:57:53.340Z,1009.22
2018-07-30T10:59:46.821Z,1009.19
2018-07-30T11:00:46.847Z,1009.17
2018-07-30T11:02:40.333Z,1009.17
2018-07-30T11:03:40.355Z,1009.18
2018-07-30T11:05:33.347Z,1009.18
2018-07-30T11:06:33.373Z,1009.15
2018-07-30T11:08:26.856Z,1009.10
2018-07-30T11:09:26.910Z,1009.07
2018-07-30T11:11:20.366Z,1009.08
2018-07-30T11:12:20.390Z,1009.05
2018-07-30T11:14:13.881Z,1009.12
2018-07-30T11:15:13.909Z,1009.13
2018-07-30T11:17:06.905Z,1009.10
2018-07-30T11:18:06.928Z,1009.16
2018-07-30T11:20:00.411Z,1009.13
2018-07-30T11:21:00.436Z,1009.09
2018-07-30T11:22:53.921Z,1009.08
2018-07-30T11:23:53.944Z,1009.07
2018-07-30T11:25:47.431Z,1009.10
2018-07-30T11:26:47.461Z,1009.14
2018-07-30T11:28:40.942Z,1009.04
2018-07-30T11:29:40.966Z,1009.03
2018-07-30T11:31:34.455Z,1009.04
2018-07-30T11:32:34.476Z,1009.04
2018-07-30T11:34:27.983Z,1008.99
2018-07-30T11:35:27.987Z,1008.94
2018-07-30T11:37:21.472Z,1008.93
2018-07-30T11:38:21.496Z,1008.89
2018-07-30T11:40:14.983Z,1008.86
2018-07-30T11:41:15.010Z,1008.85
2018-07-30T11:43:08.493Z,1008.86
2018-07-30T11:44:08.515Z,1008.84
2018-07-30T11:46:02.007Z,1008.85
2018-07-30T11:47:02.033Z,1008.89
2018-07-30T11:48:55.512Z,1008.81
2018-07-30T11:49:55.535Z,1008.80
2018-07-30T11:51:49.039Z,1008.84
2018-07-30T11:52:49.065Z,1008.81
2018-07-30T11:54:43.074Z,1008.80
2018-07-30T11:55:42.574Z,1008.75
2018-07-30T11:57:36.051Z,1008.71
2018-07-30T11:58:36.073Z,1008.72
2018-07-30T12:00:29.560Z,1008.70
2018-07-30T12:01:29.625Z,1008.67
2018-07-30T12:03:23.074Z,1008.63
2018-07-30T12:04:23.097Z,1008.66
2018-07-30T12:06:16.580Z,1008.61
2018-07-30T12:07:16.606Z,1008.64
2018-07-30T12:09:10.082Z,1008.61
2018-07-30T12:10:10.115Z,1008.62
2018-07-30T12:12:03.604Z,1008.61
2018-07-30T12:13:03.624Z,1008.61
2018-07-30T12:14:57.114Z,1008.56
2018-07-30T12:15:57.132Z,1008.63
2018-07-30T12:17:50.633Z,1008.58
2018-07-30T12:18:50.647Z,1008.59
2018-07-30T12:20:44.155Z,1008.58
2018-07-30T12:21:44.182Z,1008.57
2018-07-30T12:23:37.169Z,1008.59
2018-07-30T12:24:37.181Z,1008.63
2018-07-30T12:26:30.660Z,1008.57
2018-07-30T12:27:30.685Z,1008.59
2018-07-30T12:29:24.172Z,1008.59
2018-07-30T12:30:24.281Z,1008.52
2018-07-30T12:32:17.682Z,1008.49
2018-07-30T12:33:17.702Z,1008.46
2018-07-30T12:35:11.188Z,1008.50
2018-07-30T12:36:11.270Z,1008.49
2018-07-30T12:38:04.698Z,1008.49
2018-07-30T12:39:04.722Z,1008.44
2018-07-30T12:40:58.207Z,1008.44
2018-07-30T12:41:58.304Z,1008.39
2018-07-30T12:43:51.738Z,1008.38
2018-07-30T12:44:51.820Z,1008.35
2018-07-30T12:46:45.224Z,1008.28
2018-07-30T12:47:45.250Z,1008.31
2018-07-30T12:49:38.736Z,1008.28
2018-07-30T12:50:38.758Z,1008.27
2018-07-30T12:52:32.249Z,1008.29
2018-07-30T12:53:32.270Z,1008.27
2018-07-30T12:55:25.264Z,1008.27
2018-07-30T12:56:25.292Z,1008.29
2018-07-30T12:58:18.862Z,1008.27
2018-07-30T12:59:18.885Z,1008.22
2018-07-30T13:01:12.369Z,1008.25
2018-07-30T13:02:12.394Z,1008.27
2018-07-30T13:04:05.385Z,1008.26
2018-07-30T13:05:05.409Z,1008.27
2018-07-30T13:06:58.894Z,1008.19
2018-07-30T13:07:58.916Z,1008.17
2018-07-30T13:09:52.401Z,1008.17
2018-07-30T13:10:52.424Z,1008.17
2018-07-30T13:12:45.911Z,1008.19
2018-07-30T13:13:45.997Z,1008.16
2018-07-30T13:15:39.424Z,1008.08
2018-07-30T13:16:39.455Z,1008.11
2018-07-30T13:18:32.933Z,1008.09
2018-07-30T13:19:32.957Z,1008.07
2018-07-30T13:21:26.447Z,1008.07
2018-07-30T13:22:26.464Z,1008.05
2018-07-30T13:24:19.961Z,1008.03
2018-07-30T13:25:19.971Z,1008.08
2018-07-30T13:27:13.461Z,1008.00
2018-07-30T13:28:13.479Z,1008.00
2018-07-30T13:30:06.965Z,1007.93
2018-07-30T13:31:06.987Z,1008.01
2018-07-30T13:32:59.975Z,1008.01
2018-07-30T13:34:00.000Z,1007.99
2018-07-30T13:35:53.491Z,1007.97
2018-07-30T13:36:53.516Z,1007.99
2018-07-30T13:38:47.003Z,1007.92
2018-07-30T13:39:47.027Z,1007.92
2018-07-30T13:41:40.514Z,1007.88
2018-07-30T13:42:40.584Z,1007.94
2018-07-30T13:44:34.041Z,1007.92
2018-07-30T13:45:34.068Z,1007.95
2018-07-30T13:47:27.531Z,1007.85
2018-07-30T13:48:27.556Z,1007.82
2018-07-30T13:50:21.039Z,1007.84
2018-07-30T13:51:21.065Z,1008.00
2018-07-30T13:53:14.560Z,1007.82
2018-07-30T13:54:14.630Z,1007.81
2018-07-30T13:56:08.069Z,1007.85
2018-07-30T13:57:08.092Z,1007.91
2018-07-30T13:59:01.583Z,1007.87
2018-07-30T14:00:01.651Z,1007.80
2018-07-30T14:01:55.087Z,1007.84
2018-07-30T14:02:55.115Z,1007.84
2018-07-30T14:04:48.103Z,1007.83
2018-07-30T14:05:48.126Z,1007.86
2018-07-30T14:07:41.617Z,1007.86
2018-07-30T14:08:41.648Z,1007.85
2018-07-30T14:10:35.123Z,1007.87
2018-07-30T14:11:35.149Z,1007.84
2018-07-30T14:13:28.633Z,1007.92
2018-07-30T14:14:28.657Z,1007.86
2018-07-30T14:16:22.146Z,1007.86
2018-07-30T14:17:22.166Z,1007.81
2018-07-30T14:19:15.651Z,1007.84
2018-07-30T14:20:15.702Z,1007.83
2018-07-30T14:22:09.160Z,1007.87
2018-07-30T14:23:09.185Z,1007.86
2018-07-30T14:25:02.675Z,1007.84
2018-07-30T14:26:02.695Z,1007.85
2018-07-30T14:27:56.183Z,1007.84
2018-07-30T14:28:56.265Z,1007.84
2018-07-30T14:30:49.696Z,1007.84
2018-07-30T14:31:49.775Z,1007.80
2018-07-30T14:33:43.195Z,1007.84
2018-07-30T14:34:43.227Z,1007.82
2018-07-30T14:36:36.732Z,1007.79
2018-07-30T14:37:36.720Z,1007.82
2018-07-30T14:39:30.733Z,1007.82
2018-07-30T14:40:30.246Z,1007.80
2018-07-30T14:42:23.721Z,1007.78
2018-07-30T14:43:23.737Z,1007.76
2018-07-30T14:45:16.732Z,1007.72
2018-07-30T14:46:16.758Z,1007.72
2018-07-30T14:48:10.232Z,1007.66
2018-07-30T14:49:10.254Z,1007.70
2018-07-30T14:51:03.736Z,1007.66
2018-07-30T14:52:03.763Z,1007.65
2018-07-30T14:53:57.248Z,1007.68
2018-07-30T14:54:57.273Z,1007.64
2018-07-30T14:56:50.759Z,1007.59
2018-07-30T14:57:50.782Z,1007.62
2018-07-30T14:59:44.358Z,1007.56
2018-07-30T15:00:44.291Z,1007.50
2018-07-30T15:02:37.788Z,1007.48
2018-07-30T15:03:37.809Z,1007.49
2018-07-30T15:05:31.300Z,1007.46
2018-07-30T15:06:31.324Z,1007.46
2018-07-30T15:08:24.812Z,1007.47
2018-07-30T15:09:24.835Z,1007.44
2018-07-30T15:11:18.323Z,1007.45
2018-07-30T15:12:18.399Z,1007.44
2018-07-30T15:14:11.832Z,1007.40
2018-07-30T15:15:11.855Z,1007.43
2018-07-30T15:17:05.349Z,1007.42
2018-07-30T15:18:05.367Z,1007.45
2018-07-30T15:19:58.852Z,1007.49
2018-07-30T15:20:58.879Z,1007.43
2018-07-30T15:22:52.367Z,1007.44
2018-07-30T15:23:52.389Z,1007.37
2018-07-30T15:25:45.879Z,1007.40
2018-07-30T15:26:45.900Z,1007.39
2018-07-30T15:28:38.918Z,1007.40
2018-07-30T15:29:38.917Z,1007.36
2018-07-30T15:31:32.407Z,1007.39
2018-07-30T15:32:32.435Z,1007.39
2018-07-30T15:34:25.919Z,1007.34
2018-07-30T15:35:25.939Z,1007.36
2018-07-30T15:37:19.425Z,1007.33
2018-07-30T15:38:19.447Z,1007.34
2018-07-30T15:40:12.934Z,1007.40
2018-07-30T15:41:12.957Z,1007.38
2018-07-30T15:43:06.444Z,1007.38
2018-07-30T15:44:06.467Z,1007.36
2018-07-30T15:45:59.962Z,1007.31
2018-07-30T15:46:59.987Z,1007.37
2018-07-30T15:48:53.476Z,1007.34
2018-07-30T15:49:53.498Z,1007.41
2018-07-30T15:51:46.984Z,1007.37
2018-07-30T15:52:47.007Z,1007.38
2018-07-30T15:54:40.532Z,1007.39
2018-07-30T15:55:40.520Z,1007.39
2018-07-30T15:57:34.008Z,1007.41
2018-07-30T15:58:34.028Z,1007.39
2018-07-30T16:00:27.520Z,1007.37
2018-07-30T16:01:27.543Z,1007.39
2018-07-30T16:03:21.028Z,1007.40
2018-07-30T16:04:21.051Z,1007.40
2018-07-30T16:06:14.540Z,1007.45
2018-07-30T16:07:14.565Z,1007.42
2018-07-30T16:09:08.049Z,1007.37
2018-07-30T16:10:08.070Z,1007.36
2018-07-30T16:12:01.557Z,1007.36
2018-07-30T16:13:01.587Z,1007.39
2018-07-30T16:14:55.100Z,1007.38
2018-07-30T16:15:55.121Z,1007.38
2018-07-30T16:17:48.682Z,1007.35
2018-07-30T16:18:48.690Z,1007.33
2018-07-30T16:20:42.238Z,1007.38
2018-07-30T16:21:42.261Z,1007.37
2018-07-30T16:23:35.822Z,1007.37
2018-07-30T16:24:35.831Z,1007.32
2018-07-30T16:26:29.378Z,1007.38
2018-07-30T16:27:29.402Z,1007.36
2018-07-30T16:29:22.948Z,1007.36
2018-07-30T16:30:22.971Z,1007.38
2018-07-30T16:32:16.456Z,1007.38
2018-07-30T16:33:16.485Z,1007.41
2018-07-30T16:35:09.967Z,1007.41
2018-07-30T16:36:10.049Z,1007.43
2018-07-30T16:38:03.477Z,1007.38
2018-07-30T16:39:03.506Z,1007.42
2018-07-30T16:40:56.987Z,1007.38
2018-07-30T16:41:57.013Z,1007.39
2018-07-30T16:43:50.499Z,1007.39
2018-07-30T16:44:50.521Z,1007.36
2018-07-30T16:46:44.012Z,1007.41
2018-07-30T16:47:44.032Z,1007.39
2018-07-30T16:49:37.516Z,1007.42
2018-07-30T16:50:37.545Z,1007.44
2018-07-30T16:52:42.702Z,1007.47
2018-07-30T16:53:42.732Z,1007.47
2018-07-30T16:55:36.214Z,1007.48
2018-07-30T16:56:36.241Z,1007.48
2018-07-30T16:58:29.723Z,1007.46
2018-07-30T16:59:29.748Z,1007.46
2018-07-30T17:01:23.235Z,1007.49
2018-07-30T17:02:23.258Z,1007.49
2018-07-30T17:04:16.743Z,1007.46
2018-07-30T17:05:16.785Z,1007.46
2018-07-30T17:07:10.255Z,1007.47
2018-07-30T17:08:10.293Z,1007.46
2018-07-30T17:10:03.764Z,1007.46
2018-07-30T17:11:03.787Z,1007.52
2018-07-30T17:12:57.262Z,1007.50
2018-07-30T17:13:57.288Z,1007.52
2018-07-30T17:15:50.778Z,1007.48
2018-07-30T17:16:50.799Z,1007.48
2018-07-30T17:18:44.284Z,1007.48
2018-07-30T17:19:44.309Z,1007.47
2018-07-30T17:21:37.789Z,1007.45
2018-07-30T17:22:37.812Z,1007.45
2018-07-30T17:24:31.300Z,1007.50
2018-07-30T17:25:31.324Z,1007.51
2018-07-30T17:27:24.812Z,1007.49
2018-07-30T17:28:24.836Z,1007.49
2018-07-30T17:30:18.319Z,1007.50